New Malden, United Kingdom
Current Conditions -  °F | °C
As of 8:20 PM on Thursday 23 Oct 2014 (Local Time) from EGLL Reporting Station
Broken Clouds Broken Clouds  
Wind Chill: 59°   Ceiling: 1600
Heat Index: 59°   Visibility: 6mi
Dew Point: 57°   Wind: 9mph
Humidity: 94%   Direction: 220°SW
Pressure: 30.03"   Gusts: NA
Location:  51.4°N, 0.26°W
Report Text: EGLL 231920Z 22008KT 9999 BKN016 15/14 Q1017 TEMPO BKN012
Loading
Personal Weather Stations






























Interactive Weather Map
Tropical Storm Tracking
New forecast layout! Learn more

10-Day Weather Forecast

Advertisements
Track Severe Weather on mobile